createdAt,value
2023-07-17T04:15:04.596Z,52.14
2023-07-17T04:16:04.717Z,52.14
2023-07-17T04:17:04.812Z,52.14
2023-07-17T04:18:05.060Z,52.04
2023-07-17T04:19:05.133Z,52.04
2023-07-17T04:20:05.219Z,52.04
2023-07-17T04:21:05.334Z,51.95
2023-07-17T04:22:05.479Z,51.92
2023-07-17T04:23:05.600Z,51.72
2023-07-17T04:24:05.770Z,51.72
2023-07-17T04:25:05.830Z,51.62
2023-07-17T04:26:05.937Z,51.62
2023-07-17T04:27:06.100Z,51.52
2023-07-17T04:28:06.171Z,51.52
2023-07-17T04:29:06.332Z,51.52
2023-07-17T04:30:06.438Z,51.42
2023-07-17T04:31:07.498Z,51.42
2023-07-17T04:32:06.646Z,51.42
2023-07-17T04:33:06.818Z,51.32
2023-07-17T04:34:06.920Z,51.32
2023-07-17T04:35:07.086Z,51.29
2023-07-17T04:36:07.155Z,51.20
2023-07-17T04:37:07.292Z,51.20
2023-07-17T04:38:07.457Z,51.20
2023-07-17T04:39:07.545Z,51.10
2023-07-17T04:40:07.695Z,51.10
2023-07-17T04:41:07.832Z,51.10
2023-07-17T04:42:08.008Z,51.10
2023-07-17T04:43:08.109Z,51.10
2023-07-17T04:44:08.258Z,51.00
2023-07-17T04:45:08.495Z,51.00
2023-07-17T04:46:08.500Z,50.90
2023-07-17T04:47:08.687Z,50.90
2023-07-17T04:48:08.797Z,50.90
2023-07-17T04:49:08.901Z,50.90
2023-07-17T04:50:08.991Z,51.00
2023-07-17T04:51:09.122Z,50.90
2023-07-17T04:52:09.205Z,50.90
2023-07-17T04:53:09.305Z,50.90
2023-07-17T04:54:09.457Z,50.90
2023-07-17T04:55:09.600Z,50.90
2023-07-17T04:56:09.730Z,50.90
2023-07-17T04:57:09.877Z,50.90
2023-07-17T04:58:10.026Z,50.90
2023-07-17T04:59:10.149Z,50.90
2023-07-17T05:00:10.269Z,50.90
2023-07-17T05:01:10.544Z,50.80
2023-07-17T05:02:10.525Z,50.80
2023-07-17T05:03:10.727Z,50.90
2023-07-17T05:04:10.855Z,50.80
2023-07-17T05:05:10.900Z,50.80
2023-07-17T05:06:11.068Z,50.80
2023-07-17T05:07:11.176Z,50.80
2023-07-17T05:08:11.328Z,50.80
2023-07-17T05:09:11.431Z,50.80
2023-07-17T05:10:11.680Z,50.78
2023-07-17T05:11:11.692Z,50.70
2023-07-17T05:12:11.854Z,50.78
2023-07-17T05:13:11.968Z,50.70
2023-07-17T05:14:12.101Z,50.68
2023-07-17T05:15:12.249Z,50.68
2023-07-17T05:16:12.381Z,50.68
2023-07-17T05:17:12.416Z,50.68
2023-07-17T05:18:12.553Z,50.78
2023-07-17T05:19:12.687Z,50.68
2023-07-17T05:20:12.926Z,50.68
2023-07-17T05:21:12.987Z,50.68
2023-07-17T05:22:13.058Z,50.78
2023-07-17T05:23:13.381Z,50.68
2023-07-17T05:24:13.356Z,50.78
2023-07-17T05:25:13.485Z,50.78
2023-07-17T05:26:13.627Z,50.68
2023-07-17T05:27:13.733Z,50.78
2023-07-17T05:28:13.900Z,50.78
2023-07-17T05:29:14.055Z,50.78
2023-07-17T05:30:14.204Z,50.78
2023-07-17T05:31:14.384Z,50.78
2023-07-17T05:32:14.476Z,50.78
2023-07-17T05:33:14.586Z,50.78
2023-07-17T05:34:14.838Z,50.78
2023-07-17T05:35:16.746Z,50.78
2023-07-17T05:36:15.026Z,50.78
2023-07-17T05:37:15.136Z,50.87
2023-07-17T05:38:15.267Z,50.87
2023-07-17T05:39:15.458Z,50.87
2023-07-17T05:40:15.520Z,50.78
2023-07-17T05:41:15.744Z,50.78
2023-07-17T05:42:15.857Z,50.87
2023-07-17T05:43:15.927Z,50.90
2023-07-17T05:44:16.099Z,50.87
2023-07-17T05:45:16.174Z,50.78
2023-07-17T05:46:16.374Z,50.87
2023-07-17T05:47:16.464Z,50.87
2023-07-17T05:48:16.621Z,50.87
2023-07-17T05:49:16.742Z,50.87
2023-07-17T05:50:16.867Z,50.87
2023-07-17T05:51:17.452Z,50.78
2023-07-17T05:52:17.171Z,50.78
2023-07-17T05:53:17.366Z,50.78
2023-07-17T05:54:17.412Z,50.68
2023-07-17T05:55:17.560Z,50.68
2023-07-17T05:56:17.683Z,50.57
2023-07-17T05:57:17.863Z,50.68
2023-07-17T05:58:17.989Z,50.57
2023-07-17T05:59:18.206Z,50.57
2023-07-17T06:00:18.267Z,50.57
2023-07-17T06:01:18.659Z,50.57
2023-07-17T06:02:18.568Z,50.57
2023-07-17T06:03:18.713Z,50.57
2023-07-17T06:04:18.945Z,50.57
2023-07-17T06:05:19.046Z,50.57
2023-07-17T06:06:19.065Z,50.57
2023-07-17T06:07:19.220Z,50.57
2023-07-17T06:08:19.335Z,50.57
2023-07-17T06:09:19.508Z,50.55
2023-07-17T06:10:19.627Z,50.45
2023-07-17T06:11:19.966Z,50.55
2023-07-17T06:12:19.866Z,50.55
2023-07-17T06:13:20.007Z,50.45
2023-07-17T06:14:20.113Z,50.55
2023-07-17T06:15:20.252Z,50.45
2023-07-17T06:16:20.410Z,50.55
2023-07-17T06:17:20.479Z,50.55
2023-07-17T06:18:20.628Z,50.55
2023-07-17T06:19:20.785Z,50.55
2023-07-17T06:20:20.939Z,50.55
2023-07-17T06:21:21.072Z,50.55
2023-07-17T06:22:21.252Z,50.55
2023-07-17T06:23:21.445Z,50.55
2023-07-17T06:24:21.635Z,50.55
2023-07-17T06:25:21.623Z,50.55
2023-07-17T06:26:21.771Z,50.55
2023-07-17T06:27:21.885Z,50.55
2023-07-17T06:28:21.979Z,50.55
2023-07-17T06:29:22.166Z,50.55
2023-07-17T06:30:22.328Z,50.65
2023-07-17T06:31:22.438Z,50.65
2023-07-17T06:32:22.551Z,50.65
2023-07-17T06:33:22.665Z,50.55
2023-07-17T06:34:22.784Z,50.55
2023-07-17T06:35:22.919Z,50.55
2023-07-17T06:36:23.031Z,50.55
2023-07-17T06:37:23.172Z,50.55
2023-07-17T06:38:23.311Z,50.55
2023-07-17T06:39:23.436Z,50.45
2023-07-17T06:40:23.502Z,50.52
2023-07-17T06:41:23.621Z,50.43
2023-07-17T06:42:23.755Z,50.43
2023-07-17T06:43:23.888Z,50.43
2023-07-17T06:44:24.028Z,50.43
2023-07-17T06:45:24.197Z,50.52
2023-07-17T06:46:24.339Z,50.43
2023-07-17T06:47:36.506Z,50.52
2023-07-17T06:48:25.691Z,50.52
2023-07-17T06:49:24.763Z,50.52
2023-07-17T06:50:24.894Z,50.52
2023-07-17T06:51:25.082Z,50.43
2023-07-17T06:52:25.208Z,50.43
2023-07-17T06:53:25.326Z,50.43
2023-07-17T06:54:25.574Z,50.43
2023-07-17T06:55:25.668Z,50.43
2023-07-17T06:56:25.793Z,50.43
2023-07-17T06:57:25.907Z,50.33
2023-07-17T06:58:26.043Z,50.33
2023-07-17T06:59:26.186Z,50.33
2023-07-17T07:00:26.347Z,50.33
2023-07-17T07:01:26.488Z,50.33
2023-07-17T07:02:26.689Z,50.33
2023-07-17T07:03:26.739Z,50.33
2023-07-17T07:04:26.879Z,50.31
2023-07-17T07:05:26.964Z,50.31
2023-07-17T07:06:27.115Z,50.20
2023-07-17T07:07:27.281Z,50.20
2023-07-17T07:08:27.407Z,50.20
2023-07-17T07:09:27.544Z,50.20
2023-07-17T07:10:27.652Z,50.20
2023-07-17T07:11:27.799Z,50.20
2023-07-17T07:12:27.914Z,50.10
2023-07-17T07:13:28.091Z,50.10
2023-07-17T07:14:28.238Z,50.10
2023-07-17T07:15:28.345Z,50.20
2023-07-17T07:16:28.516Z,50.20
2023-07-17T07:17:28.710Z,50.10
2023-07-17T07:18:28.797Z,50.10
2023-07-17T07:19:28.870Z,50.10
2023-07-17T07:20:28.987Z,50.10
2023-07-17T07:21:29.136Z,50.01
2023-07-17T07:22:29.299Z,50.01
2023-07-17T07:23:29.400Z,50.01
2023-07-17T07:24:29.563Z,49.91
2023-07-17T07:25:29.644Z,49.91
2023-07-17T07:26:29.792Z,50.01
2023-07-17T07:27:29.911Z,50.01
2023-07-17T07:28:30.978Z,49.88
2023-07-17T07:29:30.202Z,49.88
2023-07-17T07:30:30.345Z,49.88
2023-07-17T07:31:30.583Z,49.78
2023-07-17T07:32:30.745Z,49.78
2023-07-17T07:33:30.828Z,49.78
2023-07-17T07:34:30.925Z,49.78
2023-07-17T07:35:31.136Z,49.78
2023-07-17T07:36:31.260Z,49.68
2023-07-17T07:37:31.414Z,49.68
2023-07-17T07:38:33.872Z,49.58
2023-07-17T07:39:31.669Z,49.68
2023-07-17T07:40:31.778Z,49.68
2023-07-17T07:41:31.886Z,49.68
2023-07-17T07:42:32.003Z,49.68
2023-07-17T07:43:33.100Z,49.78
2023-07-17T07:44:32.253Z,49.78
2023-07-17T07:45:32.401Z,49.68
2023-07-17T07:46:32.649Z,49.58
2023-07-17T07:47:32.772Z,49.58
2023-07-17T07:48:32.950Z,49.49
2023-07-17T07:49:33.022Z,49.49
2023-07-17T07:50:35.157Z,49.36
2023-07-17T07:51:33.292Z,49.36
2023-07-17T07:52:33.464Z,49.26
2023-07-17T07:53:42.447Z,49.26
2023-07-17T07:54:34.756Z,49.26
2023-07-17T07:55:33.991Z,49.26
2023-07-17T07:56:34.052Z,49.16
2023-07-17T07:57:34.188Z,49.16
2023-07-17T07:58:34.325Z,49.16
2023-07-17T07:59:36.976Z,49.16
2023-07-17T08:00:34.620Z,49.07
2023-07-17T08:01:34.766Z,48.96
2023-07-17T08:02:34.906Z,48.96
2023-07-17T08:03:35.070Z,48.96
2023-07-17T08:04:35.149Z,48.96
2023-07-17T08:05:35.269Z,48.96
2023-07-17T08:06:35.395Z,48.84
2023-07-17T08:07:35.512Z,48.84
2023-07-17T08:08:35.667Z,48.84
2023-07-17T08:09:35.792Z,48.84
2023-07-17T08:10:35.940Z,48.74
2023-07-17T08:11:36.060Z,48.84
2023-07-17T08:12:36.196Z,48.74
2023-07-17T08:13:36.361Z,48.65
2023-07-17T08:14:36.473Z,48.65
2023-07-17T08:15:36.672Z,48.65
2023-07-17T08:16:36.849Z,48.65
2023-07-17T08:17:37.939Z,48.65
2023-07-17T08:18:37.113Z,48.54
2023-07-17T08:19:37.206Z,48.54
2023-07-17T08:20:37.337Z,48.54
2023-07-17T08:21:37.518Z,48.44
2023-07-17T08:22:37.722Z,48.44
2023-07-17T08:23:37.792Z,48.35
2023-07-17T08:24:37.912Z,48.35
2023-07-17T08:25:38.049Z,48.32
2023-07-17T08:26:38.255Z,48.32
2023-07-17T08:27:38.259Z,48.32
2023-07-17T08:28:38.447Z,48.32
2023-07-17T08:29:38.571Z,48.22
2023-07-17T08:30:38.662Z,48.32
2023-07-17T08:31:38.884Z,48.22
2023-07-17T08:32:38.958Z,48.22
2023-07-17T08:33:39.080Z,48.22
2023-07-17T08:34:39.223Z,48.22
2023-07-17T08:35:39.340Z,48.22
2023-07-17T08:36:39.481Z,48.22
2023-07-17T08:37:39.618Z,48.22
2023-07-17T08:38:39.700Z,48.22
2023-07-17T08:39:39.838Z,48.22
2023-07-17T08:40:39.964Z,48.02
2023-07-17T08:41:40.067Z,48.00
2023-07-17T08:42:40.175Z,48.00
2023-07-17T08:43:40.380Z,48.00
2023-07-17T08:44:40.626Z,48.00
2023-07-17T08:45:40.633Z,47.90
2023-07-17T08:46:40.776Z,47.80
2023-07-17T08:47:40.897Z,47.90
2023-07-17T08:48:40.986Z,47.80
2023-07-17T08:49:41.115Z,47.90
2023-07-17T08:50:41.251Z,47.80
2023-07-17T08:51:41.357Z,47.80
2023-07-17T08:52:41.552Z,47.80
2023-07-17T08:53:41.678Z,47.80
2023-07-17T08:54:41.788Z,47.71
2023-07-17T08:55:41.902Z,47.71
2023-07-17T08:56:42.088Z,47.71
2023-07-17T08:57:43.636Z,47.61
2023-07-17T08:58:42.324Z,47.50
2023-07-17T08:59:42.434Z,47.50
2023-07-17T09:00:42.550Z,47.49
2023-07-17T09:01:42.679Z,47.49
2023-07-17T09:02:42.850Z,47.49
2023-07-17T09:03:43.044Z,47.58
2023-07-17T09:04:43.061Z,47.58
2023-07-17T09:05:43.170Z,47.68
2023-07-17T09:06:43.312Z,47.49
2023-07-17T09:07:43.458Z,47.49
2023-07-17T09:08:43.558Z,47.38
2023-07-17T09:09:43.734Z,47.38
2023-07-17T09:10:43.927Z,47.49
2023-07-17T09:12:59.489Z,47.49
2023-07-17T09:13:59.612Z,47.49
2023-07-17T09:14:59.731Z,47.49
2023-07-17T09:15:59.831Z,47.38
2023-07-17T09:17:00.036Z,47.38
2023-07-17T09:18:00.184Z,47.38
2023-07-17T09:19:00.277Z,47.38
2023-07-17T09:20:00.409Z,47.38
2023-07-17T09:21:00.528Z,47.28
2023-07-17T09:22:00.642Z,47.19
2023-07-17T09:23:00.807Z,47.19
2023-07-17T09:24:00.928Z,47.28
2023-07-17T09:25:01.070Z,47.19
2023-07-17T09:26:01.181Z,47.09
2023-07-17T09:27:01.294Z,46.98
2023-07-17T09:28:01.457Z,46.98
2023-07-17T09:29:01.514Z,46.89
2023-07-17T09:30:01.668Z,46.89
2023-07-17T09:31:01.874Z,46.79
2023-07-17T09:32:01.924Z,46.79
2023-07-17T09:33:02.080Z,46.77
2023-07-17T09:34:02.201Z,46.77
2023-07-17T09:35:02.353Z,46.69
2023-07-17T09:36:02.442Z,46.67
2023-07-17T09:37:02.545Z,46.67
2023-07-17T09:38:02.649Z,46.57
2023-07-17T09:39:02.830Z,46.47
2023-07-17T09:40:02.942Z,46.27
2023-07-17T09:41:03.070Z,46.27
2023-07-17T09:42:03.203Z,46.27
2023-07-17T09:43:03.366Z,46.37
2023-07-17T09:44:03.514Z,46.07
2023-07-17T09:45:03.638Z,46.17
2023-07-17T09:46:03.756Z,46.07
2023-07-17T09:47:03.894Z,46.07
2023-07-17T09:48:04.112Z,45.97
2023-07-17T09:49:04.172Z,45.97
2023-07-17T09:50:04.286Z,45.87
2023-07-17T09:51:04.421Z,46.07
2023-07-17T09:52:04.593Z,45.97
2023-07-17T09:53:04.728Z,45.97
2023-07-17T09:54:04.854Z,45.87
2023-07-17T09:55:04.942Z,45.87
2023-07-17T09:56:05.068Z,45.87
2023-07-17T09:57:05.220Z,45.87
2023-07-17T09:58:05.336Z,45.87
2023-07-17T09:59:05.454Z,45.87
2023-07-17T10:00:05.610Z,45.87
2023-07-17T10:01:05.748Z,45.87
2023-07-17T10:02:05.866Z,45.87
2023-07-17T10:03:06.066Z,45.85
2023-07-17T10:04:06.248Z,45.85
2023-07-17T10:05:06.253Z,45.75
2023-07-17T10:06:06.359Z,45.75
2023-07-17T10:07:06.558Z,45.65
2023-07-17T10:08:06.764Z,45.56
2023-07-17T10:09:06.798Z,45.56
2023-07-17T10:10:07.992Z,45.56
2023-07-17T10:11:07.046Z,45.45
2023-07-17T10:12:07.182Z,45.45
2023-07-17T10:13:07.305Z,45.56
2023-07-17T10:14:07.470Z,45.45
2023-07-17T10:15:07.577Z,45.56
2023-07-17T10:16:07.660Z,45.56
2023-07-17T10:17:07.847Z,45.45
2023-07-17T10:18:07.994Z,45.45
2023-07-17T10:29:39.362Z,45.85
2023-07-17T10:30:39.498Z,45.85
2023-07-17T10:31:39.556Z,45.95
2023-07-17T10:32:39.712Z,45.95
2023-07-17T10:33:39.810Z,45.85
2023-07-17T10:34:39.956Z,45.95
2023-07-17T10:35:40.124Z,45.85
2023-07-17T10:36:40.294Z,45.75
2023-07-17T10:37:40.433Z,45.75
2023-07-17T10:38:40.568Z,45.73
2023-07-17T10:39:40.711Z,45.73
2023-07-17T10:40:40.887Z,45.63
2023-07-17T10:41:41.034Z,45.53
2023-07-17T10:42:41.173Z,45.53
2023-07-17T10:43:41.316Z,45.43
2023-07-17T10:44:41.408Z,45.43
2023-07-17T10:45:41.522Z,45.34
2023-07-17T10:46:41.748Z,45.34
2023-07-17T10:47:41.834Z,45.53
2023-07-17T10:48:42.932Z,45.43
2023-07-17T10:49:42.034Z,45.31
2023-07-17T10:50:42.242Z,45.41
2023-07-17T10:51:42.348Z,45.31
2023-07-17T10:52:42.505Z,45.21
2023-07-17T10:53:42.585Z,45.21
2023-07-17T10:54:42.714Z,45.21
2023-07-17T10:55:42.865Z,45.12
2023-07-17T10:56:42.952Z,45.01
2023-07-17T10:57:43.101Z,45.01
2023-07-17T10:58:43.223Z,44.92
2023-07-17T10:59:43.332Z,44.92
2023-07-17T11:00:43.505Z,44.82
2023-07-17T11:01:43.705Z,44.90
2023-07-17T11:02:43.805Z,45.00
2023-07-17T11:03:43.956Z,44.80
2023-07-17T11:04:44.046Z,44.80
2023-07-17T11:05:44.116Z,44.70
2023-07-17T11:06:44.312Z,44.80
2023-07-17T11:07:44.438Z,44.70
2023-07-17T11:08:44.550Z,44.60
2023-07-17T11:09:44.669Z,44.70
2023-07-17T11:10:44.822Z,44.60
2023-07-17T11:11:47.054Z,44.70
2023-07-17T11:12:45.084Z,44.60
2023-07-17T11:13:45.208Z,44.60
2023-07-17T11:14:45.343Z,44.60
2023-07-17T11:15:45.448Z,44.58
2023-07-17T11:16:45.603Z,44.58
2023-07-17T11:17:45.832Z,44.68
2023-07-17T11:18:45.889Z,44.58
2023-07-17T11:19:45.993Z,44.48
2023-07-17T11:20:46.103Z,44.48
2023-07-17T11:21:46.256Z,44.48
2023-07-17T11:22:46.398Z,44.48
2023-07-17T11:23:46.788Z,44.48
2023-07-17T11:24:46.579Z,44.38
2023-07-17T11:25:46.682Z,44.38
2023-07-17T11:26:46.871Z,44.28
2023-07-17T11:27:47.036Z,44.28
2023-07-17T11:28:47.147Z,44.28
2023-07-17T11:29:47.662Z,44.26
2023-07-17T11:30:47.429Z,44.26
2023-07-17T11:31:47.595Z,44.16
2023-07-17T11:32:47.692Z,44.16
2023-07-17T11:33:47.960Z,44.16
2023-07-17T11:34:47.947Z,44.06
2023-07-17T11:35:48.076Z,44.06
2023-07-17T11:36:48.169Z,44.06
2023-07-17T11:37:48.265Z,44.06
2023-07-17T11:38:48.429Z,44.06
2023-07-17T11:39:48.611Z,44.06
2023-07-17T11:40:48.718Z,44.16
2023-07-17T11:41:48.880Z,44.16
2023-07-17T11:42:48.949Z,44.16
2023-07-17T11:43:50.052Z,44.26
2023-07-17T11:44:49.228Z,44.26
2023-07-17T11:45:49.388Z,44.26
2023-07-17T11:46:49.455Z,44.16
2023-07-17T11:47:49.683Z,44.16
2023-07-17T11:48:49.679Z,44.14
2023-07-17T11:49:49.832Z,44.04
2023-07-17T11:50:49.929Z,44.04
2023-07-17T11:51:50.033Z,44.04
2023-07-17T11:52:50.202Z,43.94
2023-07-17T11:53:50.372Z,43.94
2023-07-17T11:54:50.509Z,44.04
2023-07-17T11:55:50.602Z,43.94
2023-07-17T11:56:50.769Z,44.04
2023-07-17T11:57:59.462Z,44.04
2023-07-17T11:58:52.047Z,44.04
2023-07-17T11:59:51.144Z,44.24
2023-07-17T12:00:51.261Z,44.24
2023-07-17T12:01:51.457Z,44.24
2023-07-17T12:02:51.574Z,44.14
2023-07-17T12:03:53.601Z,44.04
2023-07-17T12:04:51.735Z,43.94
2023-07-17T12:05:51.837Z,43.94
2023-07-17T12:06:51.996Z,43.84
2023-07-17T12:07:52.098Z,43.84
2023-07-17T12:08:52.272Z,43.92
2023-07-17T12:09:52.439Z,43.82
2023-07-17T12:10:52.492Z,43.82
2023-07-17T12:11:52.671Z,43.82
2023-07-17T12:12:53.664Z,43.82
2023-07-17T12:13:52.906Z,43.82
2023-07-17T12:14:53.111Z,43.82
2023-07-17T12:15:53.177Z,43.82
2023-07-17T12:16:53.291Z,43.82
2023-07-17T12:17:53.425Z,43.62
2023-07-17T12:18:53.501Z,43.52
2023-07-17T12:19:53.678Z,43.62
2023-07-17T12:20:53.816Z,43.52
2023-07-17T12:21:53.923Z,43.52
2023-07-17T12:22:54.984Z,43.43
2023-07-17T12:23:54.197Z,43.52
2023-07-17T12:24:54.306Z,43.52
2023-07-17T12:25:54.493Z,43.51
2023-07-17T12:26:54.550Z,43.51
2023-07-17T12:27:54.643Z,43.41
2023-07-17T12:28:54.838Z,43.41
2023-07-17T12:29:54.913Z,43.21
2023-07-17T12:30:55.093Z,43.21
2023-07-17T12:31:55.279Z,43.21
2023-07-17T12:32:55.918Z,43.21
2023-07-17T12:33:55.443Z,43.21
2023-07-17T12:34:55.538Z,43.11
2023-07-17T12:35:55.662Z,43.11
2023-07-17T12:36:55.823Z,43.11
2023-07-17T12:37:57.736Z,42.99
2023-07-17T12:38:56.048Z,42.99
2023-07-17T12:39:57.690Z,42.89
2023-07-17T12:40:56.269Z,42.79
2023-07-17T12:41:56.441Z,42.69
2023-07-17T12:42:56.561Z,42.69
2023-07-17T12:43:56.681Z,42.69
2023-07-17T12:44:56.802Z,42.69
2023-07-17T12:46:50.818Z,42.60
2023-07-17T12:46:58.075Z,42.50
2023-07-17T12:47:57.241Z,42.38
2023-07-17T12:48:57.261Z,42.38
2023-07-17T12:49:57.377Z,42.38
2023-07-17T12:50:59.270Z,42.38
2023-07-17T12:51:57.947Z,42.28
2023-07-17T12:52:57.747Z,42.28
2023-07-17T12:53:57.879Z,42.38
2023-07-17T12:54:57.986Z,42.28
2023-07-17T12:56:14.645Z,42.38
2023-07-17T12:56:59.236Z,42.47
2023-07-17T12:57:58.381Z,42.50
2023-07-17T12:58:58.542Z,42.47
2023-07-17T12:59:58.670Z,42.38
2023-07-17T13:00:58.839Z,42.38
2023-07-17T13:02:01.488Z,42.38
2023-07-17T13:02:59.170Z,42.38
2023-07-17T13:03:59.342Z,42.47
2023-07-17T13:04:59.324Z,42.58
2023-07-17T13:05:59.478Z,42.69
2023-07-17T13:06:59.554Z,42.69
2023-07-17T13:07:59.728Z,42.69
2023-07-17T13:08:59.845Z,42.69
2023-07-17T13:10:00.045Z,42.69
2023-07-17T13:11:00.102Z,42.69
2023-07-17T13:12:00.209Z,42.79
2023-07-17T13:13:00.317Z,42.79
2023-07-17T13:14:00.453Z,42.79
2023-07-17T13:15:00.544Z,42.69
2023-07-17T13:16:00.730Z,42.69
2023-07-17T13:17:00.814Z,42.79
2023-07-17T13:18:00.997Z,42.79
2023-07-17T13:19:01.036Z,42.79
2023-07-17T13:20:01.185Z,42.69
2023-07-17T13:21:01.260Z,42.79
2023-07-17T13:22:01.371Z,42.69
2023-07-17T13:23:01.580Z,42.79
2023-07-17T13:24:01.671Z,42.79
2023-07-17T13:25:01.834Z,42.79
2023-07-17T13:26:01.949Z,42.16
2023-07-17T13:27:02.069Z,41.96
2023-07-17T13:28:02.196Z,41.75
2023-07-17T13:29:02.291Z,41.67
2023-07-17T13:30:02.419Z,41.77
2023-07-17T13:31:09.865Z,41.86
2023-07-17T13:32:03.715Z,41.99
2023-07-17T13:33:02.773Z,42.08
2023-07-17T13:34:02.943Z,42.08
2023-07-17T13:35:03.024Z,42.28
2023-07-17T13:36:03.189Z,42.38
2023-07-17T13:37:03.291Z,42.50
2023-07-17T13:38:03.412Z,42.50
2023-07-17T13:39:03.510Z,42.69
2023-07-17T13:40:03.621Z,42.79
2023-07-17T13:41:03.748Z,42.79
2023-07-17T13:42:03.880Z,42.79
2023-07-17T13:43:04.021Z,42.79
2023-07-17T13:44:04.145Z,42.79
2023-07-17T13:45:04.339Z,42.89
2023-07-17T13:46:04.369Z,42.99
2023-07-17T13:47:04.548Z,43.09
2023-07-17T13:48:04.693Z,43.21
2023-07-17T13:49:04.768Z,43.31
2023-07-17T13:50:04.943Z,43.31
2023-07-17T13:51:05.036Z,43.41
2023-07-17T13:52:05.154Z,43.51
2023-07-17T13:53:05.362Z,43.51
2023-07-17T13:54:05.390Z,43.41
2023-07-17T13:55:05.478Z,43.41
2023-07-17T13:56:05.631Z,43.41
2023-07-17T13:57:05.764Z,42.87
2023-07-17T13:58:05.890Z,42.36
2023-07-17T13:59:05.995Z,41.94
2023-07-17T14:00:06.127Z,41.65
2023-07-17T14:01:06.272Z,41.65
2023-07-17T14:02:06.559Z,41.22
2023-07-17T14:03:06.615Z,41.02
2023-07-17T14:04:06.908Z,41.33
2023-07-17T14:05:06.754Z,41.43
2023-07-17T14:06:06.914Z,41.65
2023-07-17T14:07:07.002Z,41.96
2023-07-17T14:08:07.091Z,42.16
2023-07-17T14:09:07.203Z,42.36
2023-07-17T14:10:07.395Z,42.26
2023-07-17T14:11:07.512Z,42.16
2023-07-17T14:12:07.614Z,41.63
2023-07-17T14:13:07.746Z,41.24
2023-07-17T14:14:07.856Z,40.92
2023-07-17T14:15:07.988Z,40.82
2023-07-17T14:16:08.164Z,41.02
2023-07-17T14:17:08.236Z,40.51
2023-07-17T14:18:08.334Z,40.19
2023-07-17T14:19:08.432Z,39.88
2023-07-17T14:20:08.619Z,39.68
2023-07-17T14:21:08.739Z,39.37
2023-07-17T14:22:08.836Z,39.37
2023-07-17T14:23:08.999Z,39.48
2023-07-17T14:24:09.126Z,39.27
2023-07-17T14:25:09.233Z,39.07
2023-07-17T14:26:09.345Z,39.07
2023-07-17T14:27:09.488Z,39.17
2023-07-17T14:28:09.597Z,38.85
2023-07-17T14:29:09.698Z,38.76
2023-07-17T14:30:09.848Z,38.64
2023-07-17T14:31:10.003Z,38.45
2023-07-17T14:32:10.095Z,38.35
2023-07-17T14:33:10.233Z,38.23
2023-07-17T14:34:10.329Z,38.56
2023-07-17T14:35:10.427Z,38.66
2023-07-17T14:36:10.537Z,39.19
2023-07-17T14:37:10.677Z,39.80
2023-07-17T14:38:10.827Z,39.78
2023-07-17T14:39:10.924Z,39.58
2023-07-17T14:40:11.112Z,39.17
2023-07-17T14:41:11.359Z,39.07
2023-07-17T14:42:11.416Z,39.17
2023-07-17T14:43:11.439Z,39.39
2023-07-17T14:44:11.560Z,39.70
2023-07-17T14:45:11.677Z,40.00
2023-07-17T14:46:11.895Z,40.21
2023-07-17T14:47:11.895Z,40.31
2023-07-17T14:48:12.142Z,40.62
2023-07-17T14:49:12.116Z,40.92
2023-07-17T14:50:12.288Z,41.02
2023-07-17T14:51:12.379Z,41.11
2023-07-17T14:52:12.487Z,41.11
2023-07-17T14:53:12.606Z,41.24
2023-07-17T14:54:12.765Z,41.33
2023-07-17T14:55:12.857Z,41.43
2023-07-17T14:56:13.072Z,41.53
2023-07-17T14:57:13.147Z,41.75
2023-07-17T14:58:13.241Z,41.85
2023-07-17T14:59:13.391Z,42.04
2023-07-17T15:00:13.488Z,42.07
2023-07-17T15:01:13.637Z,42.16
2023-07-17T15:02:13.732Z,42.36
2023-07-17T15:03:13.917Z,42.58
2023-07-17T15:04:14.091Z,42.58
2023-07-17T15:05:17.171Z,42.68
2023-07-17T15:06:15.231Z,42.87
2023-07-17T15:07:14.364Z,42.97
2023-07-17T15:08:14.462Z,42.97
2023-07-17T15:09:14.577Z,43.09
2023-07-17T15:10:14.691Z,43.09
2023-07-17T15:11:14.798Z,43.19
2023-07-17T15:12:14.993Z,43.19
2023-07-17T15:13:15.112Z,43.29
2023-07-17T15:14:25.917Z,43.38
2023-07-17T15:15:16.332Z,43.38
2023-07-17T15:16:15.485Z,43.48
2023-07-17T15:17:15.554Z,43.48
2023-07-17T15:18:15.704Z,43.48
2023-07-17T15:19:15.869Z,43.51
2023-07-17T15:20:16.010Z,43.51
2023-07-17T15:21:16.126Z,43.60
2023-07-17T15:22:16.234Z,43.60
2023-07-17T15:23:16.467Z,43.70
2023-07-17T15:24:16.496Z,43.80
2023-07-17T15:25:16.622Z,43.80
2023-07-17T15:26:17.138Z,43.90
2023-07-17T15:27:16.844Z,43.90
2023-07-17T15:28:16.979Z,44.00
2023-07-17T15:29:17.057Z,44.00
2023-07-17T15:30:17.213Z,44.02
2023-07-17T15:31:17.430Z,44.12
2023-07-17T15:32:17.515Z,44.12
2023-07-17T15:33:17.642Z,44.22
2023-07-17T15:34:17.777Z,44.32
2023-07-17T15:35:17.856Z,44.32
2023-07-17T15:36:18.298Z,44.32
2023-07-17T15:37:18.180Z,44.42
2023-07-17T15:38:18.325Z,44.42
2023-07-17T15:39:18.432Z,44.42
2023-07-17T15:40:18.540Z,44.51
2023-07-17T15:41:18.662Z,44.42
2023-07-17T15:42:18.753Z,44.51
2023-07-17T15:43:18.972Z,44.54
2023-07-17T15:44:19.042Z,44.54
2023-07-17T15:45:19.238Z,44.64
2023-07-17T15:46:20.304Z,44.64
2023-07-17T15:47:19.577Z,44.64
2023-07-17T15:48:19.638Z,44.64
2023-07-17T15:49:19.758Z,44.64
2023-07-17T15:50:19.828Z,44.73
2023-07-17T15:51:19.985Z,44.73
2023-07-17T15:52:20.143Z,44.83
2023-07-17T15:53:20.340Z,44.83
2023-07-17T15:54:20.486Z,44.83
2023-07-17T15:55:20.582Z,44.93
2023-07-17T15:56:21.034Z,44.93
2023-07-17T15:57:20.860Z,45.03
2023-07-17T15:58:20.970Z,45.03
2023-07-17T15:59:21.065Z,45.05
2023-07-17T16:00:21.228Z,45.15
2023-07-17T16:01:21.385Z,45.15
2023-07-17T16:02:21.513Z,45.15
2023-07-17T16:03:21.621Z,45.15
2023-07-17T16:04:21.738Z,45.25
2023-07-17T16:05:21.929Z,45.25
2023-07-17T16:06:22.151Z,45.25
2023-07-17T16:07:22.134Z,45.25
2023-07-17T16:08:22.236Z,45.25
2023-07-17T16:09:22.379Z,45.35
2023-07-17T16:10:22.493Z,45.35
2023-07-17T16:11:22.672Z,45.35
2023-07-17T16:12:24.312Z,45.35
2023-07-17T16:13:22.917Z,45.45
2023-07-17T16:14:23.026Z,45.45
2023-07-17T16:15:23.147Z,45.35
2023-07-17T16:16:23.296Z,45.35
2023-07-17T16:17:23.365Z,45.37
2023-07-17T16:28:49.291Z,46.08
2023-07-17T16:29:49.401Z,46.18
2023-07-17T16:30:49.544Z,46.18
2023-07-17T16:31:49.625Z,46.18
2023-07-17T16:32:49.910Z,46.18
2023-07-17T16:33:49.919Z,46.28
2023-07-17T16:34:50.036Z,46.38
2023-07-17T16:35:50.156Z,46.28
2023-07-17T16:36:50.274Z,46.28
2023-07-17T16:37:50.389Z,46.28
2023-07-17T16:38:50.492Z,46.28
2023-07-17T16:39:50.670Z,46.28
2023-07-17T16:40:50.814Z,46.28
2023-07-17T16:41:50.939Z,46.38
2023-07-17T16:42:51.117Z,46.48
2023-07-17T16:43:51.206Z,46.38
2023-07-17T16:44:51.389Z,46.60
2023-07-17T16:45:51.492Z,46.60
2023-07-17T16:46:51.690Z,46.70
2023-07-17T16:47:51.846Z,46.50
2023-07-17T16:48:51.923Z,46.70
2023-07-17T16:49:52.076Z,46.70
2023-07-17T16:50:52.236Z,46.60
2023-07-17T16:51:52.375Z,46.70
2023-07-17T16:52:52.505Z,46.70
2023-07-17T16:53:52.642Z,46.70
2023-07-17T16:54:52.787Z,46.70
2023-07-17T16:55:52.956Z,46.70
2023-07-17T16:56:53.140Z,46.70
2023-07-17T16:57:53.244Z,46.70
2023-07-17T16:58:53.385Z,46.60
2023-07-17T16:59:53.548Z,46.70
2023-07-17T17:00:53.703Z,46.80
2023-07-17T17:01:53.857Z,46.70
2023-07-17T17:02:54.081Z,46.60
2023-07-17T17:03:54.183Z,46.70
2023-07-17T17:04:54.261Z,46.80
2023-07-17T17:05:54.374Z,47.00
2023-07-17T17:06:54.503Z,46.80
2023-07-17T17:07:54.609Z,46.80
2023-07-17T17:08:54.768Z,46.89
2023-07-17T17:09:54.901Z,46.89
2023-07-17T17:10:55.002Z,46.89
2023-07-17T17:11:55.181Z,46.89
2023-07-17T17:12:55.258Z,47.00
2023-07-17T17:13:55.455Z,47.00
2023-07-17T17:14:55.534Z,47.02
2023-07-17T17:15:55.705Z,46.92
2023-07-17T17:16:55.851Z,47.12
2023-07-17T17:17:55.989Z,47.12
2023-07-17T17:18:56.091Z,47.02
2023-07-17T17:19:56.238Z,47.12
2023-07-17T17:20:56.369Z,47.02
2023-07-17T17:21:56.496Z,47.02
2023-07-17T17:22:57.662Z,47.31
2023-07-17T17:23:56.767Z,47.22
2023-07-17T17:24:56.913Z,47.22
2023-07-17T17:25:57.049Z,47.22
2023-07-17T17:26:57.196Z,47.22
2023-07-17T17:27:57.308Z,47.12
2023-07-17T17:28:57.430Z,47.12
2023-07-17T17:29:59.936Z,47.22
2023-07-17T17:30:57.721Z,47.22